Time;durP1;ratioP1;P1;durP2;ratioP2;P2;SDS_P1;SDS_P2;PMS_P1;PMS_P2;Temp;Humidity;BMP_temperature;BMP_pressure;BME280_temperature;BME280_humidity;BME280_pressure;Samples;Min_cycle;Max_cycle;Signal;HPM_P1;HPM_P2
2021/05/17 00:02:17;;;;;;;1.67;0.32;;;;;;;;;;4994820;28;20484;-78
2021/05/17 00:04:43;;;;;;;1.00;0.20;;;;;;;;;;4978553;28;20033;-78
2021/05/17 00:07:09;;;;;;;1.65;0.32;;;;;;;;;;4978235;28;20091;-78
2021/05/17 00:09:35;;;;;;;1.17;0.32;;;;;;;;;;4978871;28;20041;-78
2021/05/17 00:12:00;;;;;;;0.75;0.20;;;;;;;;;;4977806;28;20049;-79
2021/05/17 00:14:27;;;;;;;0.98;0.30;;;;;;;;;;4977712;28;20058;-79
2021/05/17 00:16:52;;;;;;;1.13;0.25;;;;;;;;;;4977707;28;20044;-78
2021/05/17 00:19:18;;;;;;;1.45;0.20;;;;;;;;;;4978438;28;20046;-78
2021/05/17 00:21:44;;;;;;;1.20;0.30;;;;;;;;;;4993729;28;20396;-79
2021/05/17 00:24:11;;;;;;;0.57;0.20;;;;;;;;;;4978427;28;20034;-78
2021/05/17 00:26:36;;;;;;;0.70;0.20;;;;;;;;;;4993923;28;20041;-78
2021/05/17 00:29:02;;;;;;;1.65;0.80;;;;;;;;;;4994013;28;20033;-79
2021/05/17 00:31:28;;;;;;;2.22;0.30;;;;;;;;;;4978612;28;20508;-78
2021/05/17 00:33:53;;;;;;;1.10;0.20;;;;;;;;;;4978400;28;20048;-78
2021/05/17 00:36:19;;;;;;;0.82;0.30;;;;;;;;;;4993924;28;20113;-78
2021/05/17 00:38:44;;;;;;;1.40;0.25;;;;;;;;;;5011085;28;20137;-78
2021/05/17 00:41:10;;;;;;;0.38;0.10;;;;;;;;;;5010497;28;20061;-78
2021/05/17 00:43:37;;;;;;;1.10;0.38;;;;;;;;;;5009646;28;20038;-78
2021/05/17 00:46:03;;;;;;;1.20;0.30;;;;;;;;;;5010214;28;20458;-78
2021/05/17 00:48:29;;;;;;;1.27;0.55;;;;;;;;;;4980060;28;20041;-78
2021/05/17 00:50:55;;;;;;;0.85;0.20;;;;;;;;;;4997473;28;20041;-78
2021/05/17 00:53:20;;;;;;;1.40;0.20;;;;;;;;;;4998227;28;20903;-79
2021/05/17 00:55:46;;;;;;;1.58;0.20;;;;;;;;;;4997978;28;20037;-78
2021/05/17 00:58:12;;;;;;;0.80;0.10;;;;;;;;;;4981618;28;20033;-78
2021/05/17 01:00:38;;;;;;;1.45;0.40;;;;;;;;;;4997327;28;20037;-78
2021/05/17 01:03:03;;;;;;;1.05;0.10;;;;;;;;;;5014112;28;20120;-79
2021/05/17 01:05:29;;;;;;;0.70;0.10;;;;;;;;;;4997555;28;20042;-78
2021/05/17 01:07:54;;;;;;;1.35;0.20;;;;;;;;;;4997665;28;20045;-78
2021/05/17 01:10:21;;;;;;;1.27;0.32;;;;;;;;;;4996620;28;20416;-79
2021/05/17 01:12:48;;;;;;;2.67;0.35;;;;;;;;;;4981169;28;20062;-78
2021/05/17 01:15:14;;;;;;;1.92;0.25;;;;;;;;;;4997496;28;20065;-78
2021/05/17 01:17:40;;;;;;;0.88;0.45;;;;;;;;;;4997406;28;20408;-78
2021/05/17 01:20:16;;;;;;;0.77;0.10;;;;;;;;;;4981344;28;20030;-78
2021/05/17 01:22:53;;;;;;;0.98;0.20;;;;;;;;;;4997235;28;20587;-79
2021/05/17 01:25:22;;;;;;;3.00;0.40;;;;;;;;;;4982731;28;20034;-78
2021/05/17 01:27:48;;;;;;;0.68;0.20;;;;;;;;;;4981278;28;20129;-78
2021/05/17 01:30:14;;;;;;;0.57;0.20;;;;;;;;;;4981305;28;20108;-78
2021/05/17 01:32:40;;;;;;;1.55;0.20;;;;;;;;;;4980521;28;20131;-78
2021/05/17 01:35:06;;;;;;;2.45;0.55;;;;;;;;;;4997620;28;20849;-78
2021/05/17 01:37:33;;;;;;;1.08;0.40;;;;;;;;;;4979982;28;20412;-78
2021/05/17 01:40:00;;;;;;;0.82;0.20;;;;;;;;;;4981114;28;20038;-78
2021/05/17 01:42:25;;;;;;;1.00;0.10;;;;;;;;;;4996176;28;20045;-78
2021/05/17 01:44:51;;;;;;;0.68;0.20;;;;;;;;;;4996717;28;20057;-78
2021/05/17 01:47:16;;;;;;;1.92;0.57;;;;;;;;;;4996015;28;20057;-78
2021/05/17 01:49:43;;;;;;;1.65;0.20;;;;;;;;;;4979737;28;20037;-78
2021/05/17 01:52:09;;;;;;;0.60;0.20;;;;;;;;;;4996795;28;20038;-78
2021/05/17 01:54:34;;;;;;;0.32;0.10;;;;;;;;;;4980792;28;20045;-78
2021/05/17 01:57:00;;;;;;;1.55;0.20;;;;;;;;;;4980178;28;20050;-78
2021/05/17 01:59:32;;;;;;;1.90;0.20;;;;;;;;;;4996293;28;20408;-78
2021/05/17 02:01:58;;;;;;;1.60;0.30;;;;;;;;;;5012442;28;20038;-79
2021/05/17 02:04:24;;;;;;;1.00;0.20;;;;;;;;;;4996582;28;20061;-81
2021/05/17 02:06:50;;;;;;;1.65;0.20;;;;;;;;;;4979956;28;20133;-82
2021/05/17 02:09:16;;;;;;;1.60;0.32;;;;;;;;;;4980282;28;20034;-82
2021/05/17 02:11:42;;;;;;;0.80;0.10;;;;;;;;;;4980200;28;20137;-81
2021/05/17 02:14:07;;;;;;;0.35;0.20;;;;;;;;;;4995303;28;20117;-81
2021/05/17 02:16:33;;;;;;;0.95;0.20;;;;;;;;;;4979996;28;20064;-81
2021/05/17 02:18:58;;;;;;;1.27;0.20;;;;;;;;;;4980205;28;20076;-81
2021/05/17 02:21:24;;;;;;;0.20;0.10;;;;;;;;;;4995707;28;20112;-80
2021/05/17 02:23:49;;;;;;;0.82;0.20;;;;;;;;;;4979438;28;20038;-81
2021/05/17 02:26:16;;;;;;;1.77;0.40;;;;;;;;;;4980028;28;20076;-80
2021/05/17 02:28:41;;;;;;;0.80;0.15;;;;;;;;;;4980211;28;20527;-80
2021/05/17 02:31:08;;;;;;;0.57;0.10;;;;;;;;;;4980153;28;20052;-80
2021/05/17 02:33:33;;;;;;;0.55;0.17;;;;;;;;;;4980372;28;20046;-80
2021/05/17 02:35:59;;;;;;;1.17;0.38;;;;;;;;;;4979653;28;20041;-80
2021/05/17 02:38:25;;;;;;;1.23;0.30;;;;;;;;;;4979188;28;20038;-80
2021/05/17 02:40:50;;;;;;;0.63;0.10;;;;;;;;;;5011165;28;20049;-80
2021/05/17 02:43:16;;;;;;;0.98;0.10;;;;;;;;;;4979585;28;20039;-80
2021/05/17 02:45:41;;;;;;;0.95;0.40;;;;;;;;;;5012052;28;20045;-79
2021/05/17 02:48:09;;;;;;;1.63;0.20;;;;;;;;;;4995659;28;20025;-79
2021/05/17 02:50:39;;;;;;;1.02;0.10;;;;;;;;;;4979286;28;20038;-79
2021/05/17 02:53:30;;;;;;;1.42;0.30;;;;;;;;;;4979721;28;20041;-79
2021/05/17 02:55:57;;;;;;;1.67;0.68;;;;;;;;;;5012386;28;20042;-79
2021/05/17 02:58:23;;;;;;;1.55;0.30;;;;;;;;;;4979420;28;20034;-79
2021/05/17 03:00:53;;;;;;;1.17;0.30;;;;;;;;;;4979739;28;20069;-79
2021/05/17 03:03:23;;;;;;;0.90;0.20;;;;;;;;;;5011976;28;20091;-79
2021/05/17 03:05:52;;;;;;;3.28;0.75;;;;;;;;;;5011535;28;20124;-79
2021/05/17 03:08:18;;;;;;;1.35;0.30;;;;;;;;;;4995410;28;20108;-79
2021/05/17 03:10:43;;;;;;;1.48;0.47;;;;;;;;;;4994567;28;20559;-79
2021/05/17 03:13:18;;;;;;;1.75;0.30;;;;;;;;;;4994887;28;20049;-79
2021/05/17 03:15:45;;;;;;;1.25;0.30;;;;;;;;;;4978694;28;20497;-78
2021/05/17 03:18:10;;;;;;;1.80;0.20;;;;;;;;;;4978992;28;20042;-79
2021/05/17 03:20:36;;;;;;;2.25;0.40;;;;;;;;;;4978938;28;20049;-79
2021/05/17 03:23:02;;;;;;;1.45;0.20;;;;;;;;;;4978831;28;20038;-79
2021/05/17 03:25:31;;;;;;;1.40;0.35;;;;;;;;;;4995203;28;20116;-79
2021/05/17 03:27:57;;;;;;;1.05;0.20;;;;;;;;;;4978820;28;20042;-79
2021/05/17 03:30:22;;;;;;;2.28;0.38;;;;;;;;;;4994635;28;20038;-78
2021/05/17 03:32:48;;;;;;;0.93;0.30;;;;;;;;;;4995167;28;20481;-79
2021/05/17 03:35:14;;;;;;;1.48;0.38;;;;;;;;;;4978637;28;20088;-79
2021/05/17 03:37:39;;;;;;;1.00;0.20;;;;;;;;;;4978837;28;20041;-79
2021/05/17 03:40:05;;;;;;;1.17;0.57;;;;;;;;;;4978519;28;20044;-79
2021/05/17 03:42:31;;;;;;;1.65;0.30;;;;;;;;;;4994469;28;20567;-80
2021/05/17 03:44:56;;;;;;;1.35;0.30;;;;;;;;;;4994527;28;20140;-80
2021/05/17 03:47:22;;;;;;;0.55;0.20;;;;;;;;;;4994587;28;20400;-80
2021/05/17 03:49:47;;;;;;;0.75;0.25;;;;;;;;;;5010653;28;20463;-79
2021/05/17 03:52:12;;;;;;;1.25;0.20;;;;;;;;;;5011108;28;20404;-80
2021/05/17 03:54:38;;;;;;;1.67;0.30;;;;;;;;;;5010990;28;20394;-80
2021/05/17 03:57:04;;;;;;;1.75;0.20;;;;;;;;;;4994681;28;20492;-80
2021/05/17 03:59:31;;;;;;;1.33;0.28;;;;;;;;;;5010462;28;20543;-79
2021/05/17 04:01:56;;;;;;;1.30;0.30;;;;;;;;;;5010212;28;20048;-80
2021/05/17 04:04:24;;;;;;;1.92;0.28;;;;;;;;;;4994082;28;20049;-79
2021/05/17 04:15:12;;;;;;;1.30;0.30;;;;;;;;;;4978248;28;20076;-79
2021/05/17 04:17:38;;;;;;;1.60;0.43;;;;;;;;;;4977725;28;20520;-79
2021/05/17 04:20:03;;;;;;;0.93;0.30;;;;;;;;;;4977487;28;20037;-80
2021/05/17 04:22:29;;;;;;;2.45;0.75;;;;;;;;;;4994443;28;20400;-80
2021/05/17 04:24:54;;;;;;;2.42;0.60;;;;;;;;;;4981835;28;20038;-79
2021/05/17 04:27:20;;;;;;;1.85;0.38;;;;;;;;;;5014521;28;20404;-79
2021/05/17 04:29:45;;;;;;;1.63;0.30;;;;;;;;;;4998298;28;20057;-79
2021/05/17 04:32:11;;;;;;;1.02;0.70;;;;;;;;;;4981696;28;20468;-78
2021/05/17 04:34:36;;;;;;;2.17;0.45;;;;;;;;;;4996740;28;20112;-79
2021/05/17 04:37:02;;;;;;;2.35;0.40;;;;;;;;;;5013532;28;20113;-79
2021/05/17 04:39:27;;;;;;;2.15;0.30;;;;;;;;;;5014197;28;20400;-79
2021/05/17 04:41:53;;;;;;;3.03;0.40;;;;;;;;;;4982640;28;20062;-79
2021/05/17 04:44:19;;;;;;;1.98;0.30;;;;;;;;;;5014104;28;20050;-79
2021/05/17 04:46:44;;;;;;;1.83;0.32;;;;;;;;;;4997842;28;20496;-79
2021/05/17 04:49:10;;;;;;;1.25;0.50;;;;;;;;;;5013796;28;20045;-82
2021/05/17 04:51:35;;;;;;;2.47;0.28;;;;;;;;;;4997512;28;20520;-81
2021/05/17 04:54:01;;;;;;;2.35;0.40;;;;;;;;;;4997775;28;20416;-81
2021/05/17 04:56:26;;;;;;;1.65;0.45;;;;;;;;;;4997088;28;20065;-80
2021/05/17 04:58:52;;;;;;;2.35;0.60;;;;;;;;;;4997360;28;20037;-81
2021/05/17 05:01:17;;;;;;;1.85;0.30;;;;;;;;;;5013755;28;20113;-81
2021/05/17 05:03:43;;;;;;;1.88;0.40;;;;;;;;;;5013940;28;20037;-81
2021/05/17 05:06:08;;;;;;;2.40;0.40;;;;;;;;;;4997912;28;20045;-80
2021/05/17 05:08:34;;;;;;;1.48;0.50;;;;;;;;;;4981503;28;20065;-80
2021/05/17 05:10:59;;;;;;;2.17;0.57;;;;;;;;;;5013385;28;20042;-80
2021/05/17 05:13:25;;;;;;;1.95;0.50;;;;;;;;;;5013557;28;20474;-79
2021/05/17 05:15:52;;;;;;;3.83;0.50;;;;;;;;;;4996743;28;20054;-80
2021/05/17 05:18:17;;;;;;;2.55;0.40;;;;;;;;;;4979027;28;20033;-79
2021/05/17 05:20:42;;;;;;;1.85;0.25;;;;;;;;;;5011073;28;20395;-79
2021/05/17 05:23:15;;;;;;;2.00;0.80;;;;;;;;;;5012127;28;20416;-79
2021/05/17 05:26:03;;;;;;;1.75;0.40;;;;;;;;;;4980379;28;20030;-78
2021/05/17 05:28:51;;;;;;;3.92;0.40;;;;;;;;;;4967234;28;20049;-79
2021/05/17 05:31:25;;;;;;;3.13;0.52;;;;;;;;;;4997488;28;20065;-78
2021/05/17 05:33:50;;;;;;;4.15;0.60;;;;;;;;;;4992498;28;20509;-78
2021/05/17 05:36:16;;;;;;;3.17;0.60;;;;;;;;;;4994298;28;20100;-78
2021/05/17 05:38:41;;;;;;;7.15;0.55;;;;;;;;;;4974770;28;20048;-78
2021/05/17 05:41:06;;;;;;;3.63;0.65;;;;;;;;;;4997008;28;20033;-78
2021/05/17 05:43:33;;;;;;;4.68;0.88;;;;;;;;;;4980394;28;20400;-78
2021/05/17 05:45:58;;;;;;;3.65;0.60;;;;;;;;;;4992184;28;20056;-77
2021/05/17 05:48:24;;;;;;;4.38;0.63;;;;;;;;;;4980148;28;20038;-78
2021/05/17 05:50:50;;;;;;;3.92;1.35;;;;;;;;;;4980321;28;20378;-78
2021/05/17 05:53:15;;;;;;;2.45;0.85;;;;;;;;;;4995912;28;20044;-78
2021/05/17 05:55:44;;;;;;;3.05;0.60;;;;;;;;;;4995623;28;20045;-78
2021/05/17 05:58:10;;;;;;;2.67;0.70;;;;;;;;;;4980654;28;20030;-77
2021/05/17 06:00:35;;;;;;;3.75;1.08;;;;;;;;;;4992528;28;20072;-78
2021/05/17 06:03:01;;;;;;;4.32;0.70;;;;;;;;;;4994031;28;20050;-78
2021/05/17 06:05:27;;;;;;;4.25;1.17;;;;;;;;;;4978911;28;20041;-77
2021/05/17 06:07:52;;;;;;;5.63;0.90;;;;;;;;;;4996482;28;20042;-77
2021/05/17 06:10:18;;;;;;;3.25;0.65;;;;;;;;;;4996255;28;20026;-78
2021/05/17 06:12:46;;;;;;;3.40;0.85;;;;;;;;;;4979904;28;20045;-78
2021/05/17 06:15:12;;;;;;;4.82;0.73;;;;;;;;;;4980596;28;20121;-77
2021/05/17 06:17:38;;;;;;;6.60;0.82;;;;;;;;;;4996536;28;20508;-77
2021/05/17 06:20:04;;;;;;;11.13;1.50;;;;;;;;;;4996438;28;20113;-77
2021/05/17 06:22:30;;;;;;;7.00;0.60;;;;;;;;;;4977675;28;20042;-77
2021/05/17 06:24:57;;;;;;;7.18;2.10;;;;;;;;;;4993946;28;20030;-77
2021/05/17 06:27:23;;;;;;;5.30;1.00;;;;;;;;;;4993556;28;20754;-77
2021/05/17 06:29:52;;;;;;;5.68;0.82;;;;;;;;;;4996027;28;20033;-77
2021/05/17 06:32:18;;;;;;;7.13;0.85;;;;;;;;;;4980007;28;20120;-77
2021/05/17 06:34:44;;;;;;;4.10;0.80;;;;;;;;;;4996332;28;20539;-77
2021/05/17 06:37:09;;;;;;;4.07;0.68;;;;;;;;;;5012429;28;20062;-77
2021/05/17 06:39:35;;;;;;;2.38;0.80;;;;;;;;;;4992474;28;20096;-77
2021/05/17 06:42:00;;;;;;;2.88;0.70;;;;;;;;;;5019593;28;20124;-77
2021/05/17 06:44:26;;;;;;;3.17;0.52;;;;;;;;;;4992394;28;20420;-77
2021/05/17 06:46:52;;;;;;;3.05;0.80;;;;;;;;;;5014989;28;20045;-78
2021/05/17 06:49:17;;;;;;;2.67;0.70;;;;;;;;;;4979125;28;20041;-77
2021/05/17 06:51:43;;;;;;;5.05;1.00;;;;;;;;;;4995695;28;20042;-77
2021/05/17 06:54:10;;;;;;;3.10;0.60;;;;;;;;;;5011815;28;20479;-77
2021/05/17 06:56:47;;;;;;;3.40;0.80;;;;;;;;;;4995379;28;20037;-77
2021/05/17 06:59:18;;;;;;;5.03;0.60;;;;;;;;;;5010961;28;20022;-78
2021/05/17 07:01:44;;;;;;;3.50;0.80;;;;;;;;;;4996305;28;20085;-78
2021/05/17 07:04:11;;;;;;;4.75;1.42;;;;;;;;;;4978753;28;20038;-80
2021/05/17 07:06:38;;;;;;;5.35;1.55;;;;;;;;;;5011676;28;20030;-79
2021/05/17 07:11:55;;;;;;;4.82;1.15;;;;;;;;;;4992279;28;20043;-80
2021/05/17 07:14:20;;;;;;;3.00;0.75;;;;;;;;;;4992615;28;20057;-79
2021/05/17 07:16:46;;;;;;;3.50;1.00;;;;;;;;;;4975433;28;20504;-79
2021/05/17 07:19:11;;;;;;;3.13;0.85;;;;;;;;;;4975467;28;20062;-78
2021/05/17 07:24:21;;;;;;;5.80;0.95;;;;;;;;;;4997965;28;20041;-78
2021/05/17 07:26:47;;;;;;;5.40;1.20;;;;;;;;;;4976636;28;20048;-78
2021/05/17 07:29:13;;;;;;;13.20;2.55;;;;;;;;;;4992274;28;20030;-78
2021/05/17 07:31:38;;;;;;;5.95;1.20;;;;;;;;;;4977751;28;20049;-77
2021/05/17 07:34:04;;;;;;;2.17;0.70;;;;;;;;;;4994610;28;20030;-77
2021/05/17 07:36:29;;;;;;;4.40;1.70;;;;;;;;;;4990301;28;20140;-77
2021/05/17 07:38:55;;;;;;;5.10;1.27;;;;;;;;;;4993767;28;20044;-77
2021/05/17 07:41:20;;;;;;;6.57;0.80;;;;;;;;;;4993944;28;20396;-77
2021/05/17 07:43:46;;;;;;;4.43;0.70;;;;;;;;;;4977476;28;20091;-77
2021/05/17 07:46:12;;;;;;;2.85;0.60;;;;;;;;;;4977598;28;20045;-76
2021/05/17 07:49:04;;;;;;;5.07;0.82;;;;;;;;;;4994691;28;20427;-76
2021/05/17 07:51:22;;;;;;;3.35;0.70;;;;;;;;;;4997469;28;20065;-76
2021/05/17 07:53:48;;;;;;;2.53;0.63;;;;;;;;;;4978695;28;20488;-77
2021/05/17 07:56:15;;;;;;;3.17;0.80;;;;;;;;;;4994411;28;20099;-76
2021/05/17 07:58:41;;;;;;;2.33;0.50;;;;;;;;;;4994407;28;20049;-76
2021/05/17 08:01:06;;;;;;;2.20;0.70;;;;;;;;;;4977314;28;20037;-76
2021/05/17 08:03:31;;;;;;;3.30;0.80;;;;;;;;;;4993944;28;20423;-76
2021/05/17 08:05:57;;;;;;;1.08;0.38;;;;;;;;;;4978007;28;20046;-76
2021/05/17 08:08:23;;;;;;;2.88;0.85;;;;;;;;;;4978381;28;20037;-76
2021/05/17 08:10:48;;;;;;;2.15;0.77;;;;;;;;;;4994366;28;20042;-76
2021/05/17 08:13:14;;;;;;;1.83;0.40;;;;;;;;;;4993592;28;20428;-76
2021/05/17 08:15:39;;;;;;;2.17;0.40;;;;;;;;;;5010582;28;20439;-76
2021/05/17 08:18:05;;;;;;;3.88;0.60;;;;;;;;;;5009261;28;20420;-76
2021/05/17 08:20:31;;;;;;;3.00;0.60;;;;;;;;;;4994487;28;20041;-76
2021/05/17 08:22:56;;;;;;;3.10;0.52;;;;;;;;;;5010621;28;20103;-76
2021/05/17 08:25:22;;;;;;;5.60;0.90;;;;;;;;;;4978479;28;20518;-76
2021/05/17 08:27:47;;;;;;;2.30;0.50;;;;;;;;;;5009665;28;20046;-76
2021/05/17 08:30:13;;;;;;;8.30;1.60;;;;;;;;;;4992570;28;20467;-76
2021/05/17 08:32:38;;;;;;;4.35;0.80;;;;;;;;;;4993303;28;20563;-76
2021/05/17 08:35:04;;;;;;;2.42;0.50;;;;;;;;;;5009843;28;20099;-76
2021/05/17 08:37:30;;;;;;;5.20;1.02;;;;;;;;;;4994140;28;20041;-76
2021/05/17 08:39:55;;;;;;;2.67;0.52;;;;;;;;;;4993926;28;20117;-76
2021/05/17 08:42:20;;;;;;;1.55;0.38;;;;;;;;;;4976997;28;20111;-76
2021/05/17 08:44:46;;;;;;;1.75;0.43;;;;;;;;;;4977573;28;20050;-75
2021/05/17 08:47:11;;;;;;;2.70;0.82;;;;;;;;;;4993818;28;20401;-76
2021/05/17 08:49:37;;;;;;;1.75;0.60;;;;;;;;;;4977878;28;20424;-77
2021/05/17 08:52:02;;;;;;;3.00;1.25;;;;;;;;;;4994118;28;20112;-76
2021/05/17 08:54:29;;;;;;;4.03;0.50;;;;;;;;;;4977668;28;20403;-76
2021/05/17 08:56:54;;;;;;;2.97;0.55;;;;;;;;;;4993438;28;20040;-76
2021/05/17 08:59:20;;;;;;;4.25;0.60;;;;;;;;;;4977265;28;20042;-77
2021/05/17 09:01:46;;;;;;;1.42;0.50;;;;;;;;;;5010563;28;20034;-77
2021/05/17 09:04:13;;;;;;;1.20;0.30;;;;;;;;;;5008687;28;20046;-78
2021/05/17 09:06:52;;;;;;;0.98;0.32;;;;;;;;;;4993581;28;20061;-78
2021/05/17 09:09:35;;;;;;;4.47;1.50;;;;;;;;;;4995824;28;20038;-87
2021/05/17 09:12:08;;;;;;;2.33;0.50;;;;;;;;;;4980984;28;20069;-86
2021/05/17 09:14:34;;;;;;;2.90;0.60;;;;;;;;;;4981519;28;20042;-84
2021/05/17 09:17:05;;;;;;;2.70;0.60;;;;;;;;;;4981306;28;20068;-85
2021/05/17 09:19:39;;;;;;;2.50;0.70;;;;;;;;;;4982135;28;20492;-83
2021/05/17 09:22:06;;;;;;;;;;;;;;;;;;4982730;28;20489;-85
2021/05/17 09:24:46;;;;;;;3.60;0.60;;;;;;;;;;4997374;28;19922;-85
2021/05/17 09:27:28;;;;;;;4.32;0.93;;;;;;;;;;4981551;28;20042;-83
2021/05/17 09:30:01;;;;;;;2.00;0.70;;;;;;;;;;4965858;28;20030;-84
2021/05/17 09:32:30;;;;;;;4.13;0.60;;;;;;;;;;4981306;28;20504;-84
2021/05/17 09:35:03;;;;;;;2.28;0.50;;;;;;;;;;4997145;28;20057;-85
2021/05/17 09:37:56;;;;;;;3.38;0.57;;;;;;;;;;4994388;28;20492;-85
2021/05/17 09:40:22;;;;;;;3.88;0.95;;;;;;;;;;4978393;28;20111;-86
2021/05/17 09:43:11;;;;;;;3.40;0.85;;;;;;;;;;4977872;28;20046;-85
2021/05/17 09:45:37;;;;;;;4.38;0.70;;;;;;;;;;4981868;28;20039;-86
2021/05/17 09:48:14;;;;;;;6.75;1.50;;;;;;;;;;4997200;28;20045;-86
2021/05/17 09:51:01;;;;;;;4.47;1.15;;;;;;;;;;4981990;28;20117;-87
2021/05/17 09:53:40;;;;;;;5.47;1.42;;;;;;;;;;4981376;28;20034;-87
2021/05/17 09:56:15;;;;;;;4.80;0.98;;;;;;;;;;4982738;28;20121;-86
2021/05/17 09:58:43;;;;;;;4.60;1.58;;;;;;;;;;4991999;28;20034;-87
2021/05/17 10:01:10;;;;;;;2.55;1.05;;;;;;;;;;4981490;28;20026;-87
2021/05/17 10:03:37;;;;;;;5.05;1.10;;;;;;;;;;4981228;28;20062;-87
2021/05/17 10:06:03;;;;;;;4.30;1.10;;;;;;;;;;4997560;28;20477;-85
2021/05/17 10:08:31;;;;;;;4.07;1.15;;;;;;;;;;4980931;28;20033;-85
2021/05/17 10:10:57;;;;;;;4.43;0.77;;;;;;;;;;4980558;28;20037;-83
2021/05/17 10:13:24;;;;;;;6.47;0.90;;;;;;;;;;4980385;28;20053;-85
2021/05/17 10:15:49;;;;;;;3.85;1.55;;;;;;;;;;4980754;28;20037;-84
2021/05/17 10:18:15;;;;;;;4.32;0.73;;;;;;;;;;4996401;28;20037;-84
2021/05/17 10:20:42;;;;;;;2.65;0.70;;;;;;;;;;4980511;28;20393;-84
2021/05/17 10:23:08;;;;;;;3.00;0.75;;;;;;;;;;4996237;28;20030;-86
2021/05/17 10:25:35;;;;;;;1.35;0.70;;;;;;;;;;4980912;28;20042;-87
2021/05/17 10:28:07;;;;;;;2.20;0.63;;;;;;;;;;4980803;28;20053;-87
2021/05/17 10:30:32;;;;;;;2.10;0.50;;;;;;;;;;4980649;28;20107;-86
2021/05/17 10:32:59;;;;;;;2.17;0.60;;;;;;;;;;4980619;28;20038;-87
2021/05/17 10:35:34;;;;;;;2.67;0.73;;;;;;;;;;4963104;28;20046;-85
2021/05/17 10:38:17;;;;;;;2.30;0.55;;;;;;;;;;4992719;28;20023;-85
2021/05/17 10:40:45;;;;;;;1.52;0.50;;;;;;;;;;4993026;28;20093;-84
2021/05/17 10:48:30;;;;;;;3.08;0.70;;;;;;;;;;4978259;28;20034;-85
2021/05/17 10:51:19;;;;;;;2.65;0.50;;;;;;;;;;4977273;28;20037;-85
2021/05/17 10:53:58;;;;;;;2.75;0.68;;;;;;;;;;4960512;28;20105;-86
2021/05/17 10:57:01;;;;;;;3.13;0.50;;;;;;;;;;4977373;28;20045;-85
2021/05/17 11:02:23;;;;;;;3.13;0.55;;;;;;;;;;5000511;28;20077;-85
2021/05/17 11:04:48;;;;;;;2.58;1.15;;;;;;;;;;4996095;28;20080;-84
2021/05/17 11:07:16;;;;;;;1.73;0.70;;;;;;;;;;5011725;28;20041;-84
2021/05/17 11:10:08;;;;;;;2.22;0.80;;;;;;;;;;4995774;28;20044;-83
2021/05/17 11:12:36;;;;;;;1.60;0.60;;;;;;;;;;4979064;28;20038;-83
2021/05/17 11:15:11;;;;;;;2.10;0.50;;;;;;;;;;5011489;28;20049;-84
2021/05/17 11:18:04;;;;;;;2.05;0.52;;;;;;;;;;4995505;28;20132;-83
2021/05/17 11:23:36;;;;;;;2.47;0.45;;;;;;;;;;5028076;28;20041;-83
2021/05/17 11:28:33;;;;;;;2.35;0.63;;;;;;;;;;4994751;28;20038;-82
2021/05/17 11:31:20;;;;;;;2.75;0.70;;;;;;;;;;4995056;28;20456;-82
2021/05/17 11:33:58;;;;;;;4.88;0.90;;;;;;;;;;5011190;28;20041;-82
2021/05/17 11:36:46;;;;;;;1.77;0.60;;;;;;;;;;5011017;28;20033;-83
2021/05/17 11:39:16;;;;;;;1.63;0.52;;;;;;;;;;4979021;28;20472;-83
2021/05/17 11:42:02;;;;;;;3.03;0.60;;;;;;;;;;4978536;28;20595;-83
2021/05/17 11:45:11;;;;;;;2.95;0.60;;;;;;;;;;4994935;28;20056;-83
2021/05/17 11:47:37;;;;;;;2.72;0.90;;;;;;;;;;5014750;28;20109;-84
2021/05/17 11:50:04;;;;;;;3.47;0.82;;;;;;;;;;4994861;28;20041;-83
2021/05/17 11:52:32;;;;;;;1.38;0.50;;;;;;;;;;4994853;28;20055;-83
2021/05/17 11:54:59;;;;;;;3.20;0.60;;;;;;;;;;4994871;28;20457;-83
2021/05/17 11:57:28;;;;;;;1.05;0.40;;;;;;;;;;4978596;28;20030;-83
2021/05/17 11:59:54;;;;;;;2.53;0.77;;;;;;;;;;5011234;28;20046;-82
2021/05/17 12:02:20;;;;;;;2.13;0.70;;;;;;;;;;4978425;28;20522;-82
2021/05/17 12:04:46;;;;;;;4.60;0.60;;;;;;;;;;4978414;28;20103;-82
2021/05/17 12:07:13;;;;;;;3.55;0.70;;;;;;;;;;4978522;28;20511;-82
2021/05/17 12:09:42;;;;;;;2.05;0.68;;;;;;;;;;4977523;28;20056;-82
2021/05/17 12:12:08;;;;;;;2.00;0.50;;;;;;;;;;5010513;28;20131;-82
2021/05/17 12:14:34;;;;;;;2.63;0.82;;;;;;;;;;5010846;28;20034;-82
2021/05/17 12:17:01;;;;;;;2.65;0.65;;;;;;;;;;4994490;28;20488;-81
2021/05/17 12:19:27;;;;;;;2.47;0.90;;;;;;;;;;4977745;28;20033;-82
2021/05/17 12:21:56;;;;;;;2.42;0.95;;;;;;;;;;4994387;28;20030;-81
2021/05/17 12:24:29;;;;;;;2.13;0.50;;;;;;;;;;4978494;28;20038;-81
2021/05/17 12:26:55;;;;;;;1.80;0.60;;;;;;;;;;4977964;28;20061;-82
2021/05/17 12:29:21;;;;;;;3.53;0.75;;;;;;;;;;4977813;28;20092;-81
2021/05/17 12:31:47;;;;;;;3.03;0.90;;;;;;;;;;4978132;28;20512;-81
2021/05/17 12:34:13;;;;;;;2.33;0.60;;;;;;;;;;4977803;28;20137;-81
2021/05/17 12:36:38;;;;;;;2.55;0.80;;;;;;;;;;4978428;28;20034;-82
2021/05/17 12:39:04;;;;;;;2.05;0.50;;;;;;;;;;4978030;28;20522;-81
2021/05/17 12:41:41;;;;;;;1.58;0.40;;;;;;;;;;4977766;28;20037;-81
2021/05/17 12:44:29;;;;;;;2.33;0.40;;;;;;;;;;4979060;28;20042;-81
2021/05/17 12:47:02;;;;;;;4.03;1.00;;;;;;;;;;4997501;28;20404;-81
2021/05/17 12:49:47;;;;;;;1.85;0.43;;;;;;;;;;4981702;28;20085;-81
2021/05/17 12:52:28;;;;;;;1.23;0.50;;;;;;;;;;4981863;28;20030;-81
2021/05/17 12:55:19;;;;;;;1.23;0.45;;;;;;;;;;4998299;28;20034;-81
2021/05/17 12:57:49;;;;;;;2.40;0.50;;;;;;;;;;4997775;28;20030;-81
2021/05/17 13:00:17;;;;;;;2.50;0.70;;;;;;;;;;4981911;28;20038;-81
2021/05/17 13:03:00;;;;;;;1.25;0.50;;;;;;;;;;4995754;28;20026;-81
2021/05/17 13:05:25;;;;;;;2.97;0.60;;;;;;;;;;5014017;28;20038;-81
2021/05/17 13:08:02;;;;;;;0.98;0.40;;;;;;;;;;4997660;28;20500;-81
2021/05/17 13:10:27;;;;;;;0.75;0.30;;;;;;;;;;5014085;28;20037;-82
2021/05/17 13:12:54;;;;;;;1.90;0.50;;;;;;;;;;4997155;28;20048;-81
2021/05/17 13:15:21;;;;;;;1.50;0.73;;;;;;;;;;4997763;28;20447;-81
2021/05/17 13:17:54;;;;;;;1.52;0.50;;;;;;;;;;5012904;28;20030;-81
2021/05/17 13:20:22;;;;;;;2.17;0.70;;;;;;;;;;4997390;28;20038;-81
2021/05/17 13:23:33;;;;;;;2.38;0.60;;;;;;;;;;4997828;28;20034;-81
2021/05/17 13:30:57;;;;;;;1.98;0.30;;;;;;;;;;4997723;28;20044;-81
2021/05/17 13:33:40;;;;;;;1.90;0.43;;;;;;;;;;4997483;28;20069;-81
2021/05/17 13:36:08;;;;;;;1.95;0.40;;;;;;;;;;4997716;28;20044;-81
2021/05/17 13:38:36;;;;;;;3.20;0.68;;;;;;;;;;4980786;28;20030;-82
2021/05/17 13:41:02;;;;;;;2.78;0.70;;;;;;;;;;4980821;28;20029;-81
2021/05/17 13:43:27;;;;;;;1.90;0.47;;;;;;;;;;4980593;28;20045;-81
2021/05/17 13:45:53;;;;;;;2.67;0.52;;;;;;;;;;4980679;28;20038;-81
2021/05/17 13:48:18;;;;;;;1.98;0.70;;;;;;;;;;4980397;28;20030;-82
2021/05/17 13:50:44;;;;;;;2.08;0.70;;;;;;;;;;4981077;28;20041;-83
2021/05/17 13:53:10;;;;;;;1.85;0.60;;;;;;;;;;4981082;28;20034;-85
2021/05/17 13:55:37;;;;;;;2.58;0.98;;;;;;;;;;4979888;28;20093;-85
2021/05/17 13:58:02;;;;;;;2.35;0.63;;;;;;;;;;4996639;28;20121;-83
2021/05/17 14:00:28;;;;;;;2.30;0.60;;;;;;;;;;4980295;28;20109;-84
2021/05/17 14:02:54;;;;;;;2.58;0.70;;;;;;;;;;4964191;28;20056;-84
2021/05/17 14:05:20;;;;;;;3.80;0.85;;;;;;;;;;4980622;28;20029;-84
2021/05/17 14:07:46;;;;;;;1.50;0.45;;;;;;;;;;4980429;28;20034;-83
2021/05/17 14:10:11;;;;;;;2.10;0.63;;;;;;;;;;4980571;28;20057;-83
2021/05/17 14:12:37;;;;;;;1.38;0.80;;;;;;;;;;4979965;28;20045;-83
2021/05/17 14:15:05;;;;;;;2.35;0.80;;;;;;;;;;4980009;28;20048;-83
2021/05/17 14:17:32;;;;;;;2.20;0.70;;;;;;;;;;4980491;28;20030;-83
2021/05/17 14:19:58;;;;;;;2.13;0.60;;;;;;;;;;4980312;28;20136;-82
2021/05/17 14:22:24;;;;;;;1.98;0.90;;;;;;;;;;4979892;28;20385;-83
2021/05/17 14:24:51;;;;;;;2.65;0.70;;;;;;;;;;4980261;28;20034;-83
2021/05/17 14:27:16;;;;;;;2.80;0.80;;;;;;;;;;4980207;28;20038;-83
2021/05/17 14:29:41;;;;;;;1.40;0.50;;;;;;;;;;4979417;28;20041;-83
2021/05/17 14:32:07;;;;;;;2.60;0.80;;;;;;;;;;4979672;28;20030;-82
2021/05/17 14:34:33;;;;;;;2.00;0.70;;;;;;;;;;4979929;28;20096;-83
2021/05/17 14:36:59;;;;;;;2.63;0.70;;;;;;;;;;4964005;28;20480;-82
2021/05/17 14:39:24;;;;;;;2.53;0.93;;;;;;;;;;4979761;28;20072;-82
2021/05/17 14:41:50;;;;;;;1.52;0.50;;;;;;;;;;4979191;28;20069;-83
2021/05/17 14:44:15;;;;;;;2.67;0.68;;;;;;;;;;4979497;28;20042;-81
2021/05/17 14:46:41;;;;;;;4.05;0.90;;;;;;;;;;4995553;28;20061;-84
2021/05/17 14:49:06;;;;;;;6.28;0.90;;;;;;;;;;4979870;28;20068;-82
2021/05/17 14:51:32;;;;;;;2.20;0.75;;;;;;;;;;4967791;28;20513;-82
2021/05/17 14:53:57;;;;;;;2.03;0.75;;;;;;;;;;4959932;28;20042;-80
2021/05/17 14:56:24;;;;;;;7.45;1.50;;;;;;;;;;4999550;28;20121;-79
2021/05/17 14:58:50;;;;;;;8.20;1.55;;;;;;;;;;4994954;28;20404;-80
2021/05/17 15:01:15;;;;;;;6.38;1.58;;;;;;;;;;4969819;28;20038;-80
2021/05/17 15:03:41;;;;;;;14.50;1.80;;;;;;;;;;5008201;28;20510;-78
2021/05/17 15:06:06;;;;;;;13.13;2.47;;;;;;;;;;5007356;28;20050;-77
2021/05/17 15:08:32;;;;;;;11.18;1.65;;;;;;;;;;4990529;28;20114;-78
2021/05/17 15:10:57;;;;;;;7.13;1.30;;;;;;;;;;4983973;28;20419;-78
2021/05/17 15:13:23;;;;;;;7.57;1.10;;;;;;;;;;4975654;28;20125;-78
2021/05/17 15:15:48;;;;;;;5.90;1.20;;;;;;;;;;4978826;28;20038;-77
2021/05/17 15:18:15;;;;;;;4.43;0.90;;;;;;;;;;4978533;28;20125;-77
2021/05/17 15:20:40;;;;;;;5.45;1.00;;;;;;;;;;4995628;28;20033;-77
2021/05/17 15:23:20;;;;;;;7.90;1.33;;;;;;;;;;4995158;28;20030;-78